Please enter the email address associated with your User account. Your username will be emailed to the email address on file.

METAR TAF

[Source: ADDS]
METAR
LFCR 051900Z AUTO 27004KT CAVOK 25/05 Q1016 NOSIG =
LFCR 051700Z 0518/0618 30007KT CAVOK LFBA 051900Z AUTO 28003KT CAVOK 28/08 Q1013 NOSIG =
LFBA 051400Z 0515/0524 09005KT CAVOK LFSL 051900Z AUTO 31004KT CAVOK 27/09 Q1014 NOSIG =
LFSL 051400Z 0515/0524 34005KT CAVOK LFLW 051830Z AUTO 33004KT 300V360 CAVOK 27/04 Q1016 =
LFLW 051400Z 0515/0524 30005KT CAVOK
TAF
LFCR 051700Z 0518/0618 30007KT CAVOK =
LFBA 051400Z 0515/0524 09005KT CAVOK =
LFSL 051400Z 0515/0524 34005KT CAVOK =
LFLW 051400Z 0515/0524 30005KT CAVOK =
SR / SS: 04:46 / 19:13 UTC (LFCC 2020-08-05)